Terminal Aerodrome Forecast
Issued by NWS Knoxville/Tri Cities, TN

Current Version | Previous Version | Text Only | Print | Product List | Glossary On
Versions: 1 2 3 4 5 6 7 8 9 10 11 12 13 14 15 16
000
FTUS44 KMRX 172320
TAFTYS
TAF
KTYS 172320Z 1800/1824 03003KT P6SM BKN250
     FM181200 05005KT P6SM SCT050 BKN120
     FM181900 03007KT P6SM BKN050=

USA.gov is the U.S. government's official web portal to all federal, state and local government web resources and services.